Kezdőlap
METAR-TAF:

METAR-TAF

Repülőterek :

Clayton, Új-Mexikó, Amerikai Egyesült Államok

földrajzi szélesség: 36-26-54N, földrajzi hosszúság: 103-09-11W, magasság: 1513 m

Jelenlegi meteorológiai megfigyelések

A jelentés 33 perccel ezelõtt készült, 10:55 UTC
Nyugati szél 10 kt
Hőmérséklet 13°C
Páratartalom 30%
Légköri nyomás 1013 hPa
Látótávolság: 16.1 km
Derült ég

METAR: KCAO 231055Z AUTO 28010KT 10SM CLR 13/M04 A2991 RMK AO2 SLP067 T01331039 $

Idő: 05:28 (11:28 UTC)


TAF: hiányzik

Meteorológiai megfigyelések és előrejelzések több, mint 4000 repülőtéren (METAR és TAF jelentéseket).

A térképen piros és sárga pontok jelzik az elérhető meteorológiai állomásokat.

Mozgassa az egeret a pont fölött, hogy megjelenjen az állomás neve.

Azután kattintson az időjárási megfigyelések és előrejelzések megtekintéséhez.

A térkép megváltoztatása: kattintson a fekete keresztel jelölt zöld gombra ráközelítéshez, a vonallal jelölt zöld gombra távolításhoz, vagy a zöld nyilakra a szomszédos térképek eléréséhez.


METAR-TAF: